Ogallala, NE (69153)

6:17 AM MDT on April 29, 2017 (GMT -0600)
MUP225 | | Change Station
Active Advisory: Flood Advisory Active Notice: Flood Advisory

Elev 3204 ft 41.13 °N, 101.66 °W | Updated 12 days ago

Overcast
Overcast
60.0 °F
Feels Like 60.0 °F
N
6.0
Wind Variable Wind from SE
Gusts 10.0 mph

Today
High -- | Low -- °F
--% Chance of Precip.
Yesterday
High -- | Low -- °F
Precip. -- in
Pressure 30.14 in
Visibility 10.0 miles
Clouds Overcast 5000 ft
Dew Point Not available.
Humidity Not available.
Rainfall in
Snow Depth Not available.
5:46 AM 7:42 PM
Waxing Crescent, 13% visible
METAR KOGA 291155Z AUTO 03010KT 10SM OVC050 04/M01 A3014 RMK AO2 70017 T00351013 10040 20035
Pressure 30.14 in
Visibility 10.0 miles
Clouds Overcast 5000 ft
Dew Point Not available.
Humidity Not available.
Rainfall in
Snow Depth Not available.
5:46 AM 7:42 PM
Waxing Crescent, 13% visible
METAR KOGA 291155Z AUTO 03010KT 10SM OVC050 04/M01 A3014 RMK AO2 70017 T00351013 10040 20035

Get Your Daily Forecast Email!

Thanks for signing up!

Be on the lookout for a verification email in your inbox.

You'll start receiving severe weather alerts in your inbox..

×

10-Day Weather Forecast

Almanac

Astronomy

Apr. 29, 2017 Rise Set
Actual Time
Civil Twilight
Nautical Twilight
Astronomical Twilight
Moon
Length of Visible Light
Length of Day
Tomorrow will be .
, % of the Moon is Illuminated

Today's Extremes

State Highs State Lows

Community

WunderPhotos

WunderBlog® & News

Nearby

Air Quality

  Air Quality AQ Index Pollutant
Not available.

Snow Depth

Station Depth Elevation

Earthquake Activity

City Distance Mag. Time & Date
Minimum magnitude displayed is 2.5.

Coastal Water Temperatures

Place Temperature

Stations

Nearby Weather Stations

Station Location Temp. Windchill Dew Point Humidity Wind Precip. Elev Updated Type
                   

Watches & Warnings

Flood Advisory
Issued: 6:30 PM MDT Apr. 28, 2017 – National Weather Service

The flood advisory continues for
the North Platte river at Lewellen.
* Until Sunday evening.
* At 5:45 PM Friday the stage was 7.7 feet.
* Flood stage is 7.5 feet.
* Forecast... the river will remain near 7.7 feet tonight and slowly
fall to below flood stage by Monday morning.
* Impact... at 7.5 feet... minor flood stage. Overflow and high water
table levels will cause seepage and flooding of basements and crawl
spaces near and along the river.


Lat... Lon 4136 10235 4140 10235 4130 10196 4126 10197